sensor_id;sensor_type;location;lat;lon;timestamp;pressure;altitude;pressure_sealevel;temperature;humidity
54948;BME280;41113;41.882;12.530;2023-04-15T00:00:39;100421.81;;;9.71;89.21
54948;BME280;41113;41.882;12.530;2023-04-15T00:03:05;100427.34;;;9.69;90.55
54948;BME280;41113;41.882;12.530;2023-04-15T00:05:31;100423.22;;;9.65;89.91
54948;BME280;41113;41.882;12.530;2023-04-15T00:07:57;100429.16;;;9.68;91.06
54948;BME280;41113;41.882;12.530;2023-04-15T00:10:23;100425.06;;;9.64;90.21
54948;BME280;41113;41.882;12.530;2023-04-15T00:12:49;100413.63;;;9.62;91.39
54948;BME280;41113;41.882;12.530;2023-04-15T00:15:15;100406.84;;;9.58;90.92
54948;BME280;41113;41.882;12.530;2023-04-15T00:17:40;100410.41;;;9.68;91.33
54948;BME280;41113;41.882;12.530;2023-04-15T00:20:06;100410.69;;;9.75;90.36
54948;BME280;41113;41.882;12.530;2023-04-15T00:22:32;100406.50;;;9.82;90.19
54948;BME280;41113;41.882;12.530;2023-04-15T00:24:57;100403.66;;;9.84;90.39
54948;BME280;41113;41.882;12.530;2023-04-15T00:27:22;100401.53;;;9.78;91.50
54948;BME280;41113;41.882;12.530;2023-04-15T00:29:48;100400.09;;;9.74;92.04
54948;BME280;41113;41.882;12.530;2023-04-15T00:32:13;100400.28;;;9.82;91.30
54948;BME280;41113;41.882;12.530;2023-04-15T00:34:39;100395.63;;;9.84;92.03
54948;BME280;41113;41.882;12.530;2023-04-15T00:37:05;100395.63;;;9.84;90.89
54948;BME280;41113;41.882;12.530;2023-04-15T00:39:30;100394.34;;;9.88;90.71
54948;BME280;41113;41.882;12.530;2023-04-15T00:41:56;100391.81;;;9.96;90.32
54948;BME280;41113;41.882;12.530;2023-04-15T00:44:21;100387.59;;;10.03;90.94
54948;BME280;41113;41.882;12.530;2023-04-15T00:46:47;100385.78;;;10.13;90.01
54948;BME280;41113;41.882;12.530;2023-04-15T00:49:14;100378.25;;;10.07;91.21
54948;BME280;41113;41.882;12.530;2023-04-15T00:51:40;100379.25;;;10.06;91.38
54948;BME280;41113;41.882;12.530;2023-04-15T00:54:05;100380.69;;;10.10;90.42
54948;BME280;41113;41.882;12.530;2023-04-15T00:56:36;100379.13;;;10.17;90.76
54948;BME280;41113;41.882;12.530;2023-04-15T00:59:03;100373.06;;;10.15;90.05
54948;BME280;41113;41.882;12.530;2023-04-15T01:01:29;100371.69;;;10.21;89.75
54948;BME280;41113;41.882;12.530;2023-04-15T01:03:56;100371.94;;;10.27;89.53
54948;BME280;41113;41.882;12.530;2023-04-15T01:06:24;100369.97;;;10.29;89.08
54948;BME280;41113;41.882;12.530;2023-04-15T01:08:51;100359.66;;;10.35;88.92
54948;BME280;41113;41.882;12.530;2023-04-15T01:11:17;100361.34;;;10.36;88.08
54948;BME280;41113;41.882;12.530;2023-04-15T01:13:43;100357.25;;;10.41;87.80
54948;BME280;41113;41.882;12.530;2023-04-15T01:16:10;100356.13;;;10.44;87.14
54948;BME280;41113;41.882;12.530;2023-04-15T01:18:36;100350.72;;;10.53;86.57
54948;BME280;41113;41.882;12.530;2023-04-15T01:21:03;100348.91;;;10.54;86.20
54948;BME280;41113;41.882;12.530;2023-04-15T01:23:29;100353.44;;;10.44;85.91
54948;BME280;41113;41.882;12.530;2023-04-15T01:25:55;100356.69;;;10.38;86.06
54948;BME280;41113;41.882;12.530;2023-04-15T01:28:21;100355.28;;;10.43;85.88
54948;BME280;41113;41.882;12.530;2023-04-15T01:30:47;100343.69;;;10.43;85.71
54948;BME280;41113;41.882;12.530;2023-04-15T01:33:12;100351.44;;;10.36;85.63
54948;BME280;41113;41.882;12.530;2023-04-15T01:35:38;100344.94;;;10.39;85.28
54948;BME280;41113;41.882;12.530;2023-04-15T01:38:07;100333.78;;;10.34;85.51
54948;BME280;41113;41.882;12.530;2023-04-15T01:40:34;100336.47;;;10.34;85.01
54948;BME280;41113;41.882;12.530;2023-04-15T01:43:00;100334.53;;;10.26;85.32
54948;BME280;41113;41.882;12.530;2023-04-15T01:45:26;100337.19;;;10.26;85.10
54948;BME280;41113;41.882;12.530;2023-04-15T01:47:52;100346.50;;;10.32;84.90
54948;BME280;41113;41.882;12.530;2023-04-15T01:50:17;100346.53;;;10.41;84.46
54948;BME280;41113;41.882;12.530;2023-04-15T01:52:43;100348.78;;;10.46;84.02
54948;BME280;41113;41.882;12.530;2023-04-15T01:55:09;100347.06;;;10.54;83.73
54948;BME280;41113;41.882;12.530;2023-04-15T01:57:34;100349.03;;;10.52;83.35
54948;BME280;41113;41.882;12.530;2023-04-15T02:00:00;100355.56;;;10.50;83.09
54948;BME280;41113;41.882;12.530;2023-04-15T02:02:25;100341.97;;;10.51;83.05
54948;BME280;41113;41.882;12.530;2023-04-15T02:04:50;100344.78;;;10.59;83.02
54948;BME280;41113;41.882;12.530;2023-04-15T02:07:16;100345.19;;;10.65;82.77
54948;BME280;41113;41.882;12.530;2023-04-15T02:09:41;100337.25;;;10.73;82.46
54948;BME280;41113;41.882;12.530;2023-04-15T02:12:08;100343.59;;;10.72;82.36
54948;BME280;41113;41.882;12.530;2023-04-15T02:14:33;100348.88;;;10.73;82.45
54948;BME280;41113;41.882;12.530;2023-04-15T02:16:59;100349.28;;;10.78;82.16
54948;BME280;41113;41.882;12.530;2023-04-15T02:19:31;100341.34;;;10.77;82.12
54948;BME280;41113;41.882;12.530;2023-04-15T02:21:56;100337.38;;;10.71;82.14
54948;BME280;41113;41.882;12.530;2023-04-15T02:24:22;100336.84;;;10.77;81.93
54948;BME280;41113;41.882;12.530;2023-04-15T02:26:47;100336.53;;;10.80;81.98
54948;BME280;41113;41.882;12.530;2023-04-15T02:29:12;100340.81;;;10.73;81.91
54948;BME280;41113;41.882;12.530;2023-04-15T02:31:38;100325.84;;;10.61;82.52
54948;BME280;41113;41.882;12.530;2023-04-15T02:34:04;100329.22;;;10.63;82.63
54948;BME280;41113;41.882;12.530;2023-04-15T02:36:30;100327.22;;;10.65;82.33
54948;BME280;41113;41.882;12.530;2023-04-15T02:38:56;100335.72;;;10.60;83.24
54948;BME280;41113;41.882;12.530;2023-04-15T02:41:21;100324.44;;;10.57;83.76
54948;BME280;41113;41.882;12.530;2023-04-15T02:43:51;100325.31;;;10.48;85.10
54948;BME280;41113;41.882;12.530;2023-04-15T02:46:16;100321.91;;;10.55;84.38
54948;BME280;41113;41.882;12.530;2023-04-15T02:48:42;100318.50;;;10.53;83.83
54948;BME280;41113;41.882;12.530;2023-04-15T02:51:15;100320.75;;;10.58;83.67
54948;BME280;41113;41.882;12.530;2023-04-15T02:53:41;100314.06;;;10.72;83.23
54948;BME280;41113;41.882;12.530;2023-04-15T02:56:06;100305.88;;;10.73;83.87
54948;BME280;41113;41.882;12.530;2023-04-15T02:58:32;100311.56;;;10.60;85.97
54948;BME280;41113;41.882;12.530;2023-04-15T03:00:58;100312.84;;;10.56;86.93
54948;BME280;41113;41.882;12.530;2023-04-15T03:03:24;100318.53;;;10.44;86.89
54948;BME280;41113;41.882;12.530;2023-04-15T03:05:50;100331.78;;;10.55;86.16
54948;BME280;41113;41.882;12.530;2023-04-15T03:08:16;100342.34;;;10.66;85.58
54948;BME280;41113;41.882;12.530;2023-04-15T03:10:41;100346.19;;;10.73;85.80
54948;BME280;41113;41.882;12.530;2023-04-15T03:13:06;100337.44;;;10.62;90.02
54948;BME280;41113;41.882;12.530;2023-04-15T03:15:32;100334.47;;;10.55;89.53
54948;BME280;41113;41.882;12.530;2023-04-15T03:17:58;100322.78;;;10.17;95.33
54948;BME280;41113;41.882;12.530;2023-04-15T03:20:23;100323.47;;;10.19;95.14
54948;BME280;41113;41.882;12.530;2023-04-15T03:22:48;100324.47;;;10.38;93.61
54948;BME280;41113;41.882;12.530;2023-04-15T03:25:14;100322.47;;;10.49;94.31
54948;BME280;41113;41.882;12.530;2023-04-15T03:27:40;100312.56;;;10.59;93.97
54948;BME280;41113;41.882;12.530;2023-04-15T03:30:06;100318.88;;;10.68;94.34
54948;BME280;41113;41.882;12.530;2023-04-15T03:32:32;100317.47;;;10.74;94.07
54948;BME280;41113;41.882;12.530;2023-04-15T03:34:57;100310.25;;;10.74;94.34
54948;BME280;41113;41.882;12.530;2023-04-15T03:37:22;100307.00;;;10.80;93.46
54948;BME280;41113;41.882;12.530;2023-04-15T03:39:48;100306.53;;;10.85;92.58
54948;BME280;41113;41.882;12.530;2023-04-15T03:42:13;100295.00;;;10.65;97.15
54948;BME280;41113;41.882;12.530;2023-04-15T03:44:38;100288.53;;;10.58;98.74
54948;BME280;41113;41.882;12.530;2023-04-15T03:47:04;100287.13;;;10.54;98.31
54948;BME280;41113;41.882;12.530;2023-04-15T03:49:29;100285.88;;;10.48;99.28
54948;BME280;41113;41.882;12.530;2023-04-15T03:51:54;100284.31;;;10.55;99.06
54948;BME280;41113;41.882;12.530;2023-04-15T03:54:20;100288.53;;;10.58;99.94
54948;BME280;41113;41.882;12.530;2023-04-15T03:56:45;100286.09;;;10.65;97.82
54948;BME280;41113;41.882;12.530;2023-04-15T03:59:11;100288.63;;;10.66;96.78
54948;BME280;41113;41.882;12.530;2023-04-15T04:01:36;100280.84;;;10.73;96.45
54948;BME280;41113;41.882;12.530;2023-04-15T04:04:01;100281.41;;;10.76;97.39
54948;BME280;41113;41.882;12.530;2023-04-15T04:06:27;100276.03;;;10.76;98.44
54948;BME280;41113;41.882;12.530;2023-04-15T04:08:52;100274.06;;;10.69;97.80
54948;BME280;41113;41.882;12.530;2023-04-15T04:11:17;100268.69;;;10.69;99.33
54948;BME280;41113;41.882;12.530;2023-04-15T04:13:43;100267.72;;;10.70;99.57
54948;BME280;41113;41.882;12.530;2023-04-15T04:16:08;100261.38;;;10.61;100.00
54948;BME280;41113;41.882;12.530;2023-04-15T04:18:33;100269.94;;;10.47;100.00
54948;BME280;41113;41.882;12.530;2023-04-15T04:20:59;100267.38;;;10.36;100.00
54948;BME280;41113;41.882;12.530;2023-04-15T04:23:25;100270.81;;;10.18;100.00
54948;BME280;41113;41.882;12.530;2023-04-15T04:25:50;100259.38;;;10.16;100.00
54948;BME280;41113;41.882;12.530;2023-04-15T04:28:17;100264.72;;;10.16;100.00
54948;BME280;41113;41.882;12.530;2023-04-15T04:30:42;100267.13;;;10.19;100.00
54948;BME280;41113;41.882;12.530;2023-04-15T04:33:08;100259.81;;;10.21;100.00
54948;BME280;41113;41.882;12.530;2023-04-15T04:35:33;100257.97;;;10.22;100.00
54948;BME280;41113;41.882;12.530;2023-04-15T04:38:01;100244.97;;;10.17;100.00
54948;BME280;41113;41.882;12.530;2023-04-15T04:40:27;100241.31;;;10.09;100.00
54948;BME280;41113;41.882;12.530;2023-04-15T04:42:52;100243.13;;;9.98;100.00
54948;BME280;41113;41.882;12.530;2023-04-15T04:45:18;100245.13;;;9.96;100.00
54948;BME280;41113;41.882;12.530;2023-04-15T04:47:44;100242.00;;;10.01;100.00
54948;BME280;41113;41.882;12.530;2023-04-15T04:50:10;100246.66;;;9.99;100.00
54948;BME280;41113;41.882;12.530;2023-04-15T04:52:36;100246.97;;;9.96;100.00
54948;BME280;41113;41.882;12.530;2023-04-15T04:55:01;100257.53;;;10.07;100.00
54948;BME280;41113;41.882;12.530;2023-04-15T04:57:26;100252.75;;;10.20;99.87
54948;BME280;41113;41.882;12.530;2023-04-15T04:59:52;100253.97;;;10.36;99.14
54948;BME280;41113;41.882;12.530;2023-04-15T05:02:17;100256.09;;;10.42;98.58
54948;BME280;41113;41.882;12.530;2023-04-15T05:04:43;100252.97;;;10.37;97.85
54948;BME280;41113;41.882;12.530;2023-04-15T05:07:08;100258.63;;;10.34;98.86
54948;BME280;41113;41.882;12.530;2023-04-15T05:09:33;100255.56;;;10.28;99.67
54948;BME280;41113;41.882;12.530;2023-04-15T05:12:00;100248.63;;;10.16;99.86
54948;BME280;41113;41.882;12.530;2023-04-15T05:14:26;100252.47;;;10.23;100.00
54948;BME280;41113;41.882;12.530;2023-04-15T05:16:51;100247.25;;;10.22;100.00
54948;BME280;41113;41.882;12.530;2023-04-15T05:19:17;100242.56;;;10.24;100.00
54948;BME280;41113;41.882;12.530;2023-04-15T05:21:42;100237.50;;;10.21;100.00
54948;BME280;41113;41.882;12.530;2023-04-15T05:24:07;100240.28;;;10.19;100.00
54948;BME280;41113;41.882;12.530;2023-04-15T05:26:33;100236.66;;;10.20;100.00
54948;BME280;41113;41.882;12.530;2023-04-15T05:28:58;100235.22;;;10.26;100.00
54948;BME280;41113;41.882;12.530;2023-04-15T05:31:24;100233.81;;;10.22;100.00
54948;BME280;41113;41.882;12.530;2023-04-15T05:33:50;100226.88;;;10.19;100.00
54948;BME280;41113;41.882;12.530;2023-04-15T05:36:16;100214.03;;;10.23;100.00
54948;BME280;41113;41.882;12.530;2023-04-15T05:38:41;100208.38;;;10.16;100.00
54948;BME280;41113;41.882;12.530;2023-04-15T05:41:06;100195.69;;;9.99;100.00
54948;BME280;41113;41.882;12.530;2023-04-15T05:43:32;100198.53;;;9.97;100.00
54948;BME280;41113;41.882;12.530;2023-04-15T05:45:58;100188.34;;;10.01;100.00
54948;BME280;41113;41.882;12.530;2023-04-15T05:48:24;100186.38;;;10.03;100.00
54948;BME280;41113;41.882;12.530;2023-04-15T05:50:50;100176.47;;;10.13;100.00
54948;BME280;41113;41.882;12.530;2023-04-15T05:53:15;100186.22;;;10.14;100.00
54948;BME280;41113;41.882;12.530;2023-04-15T05:55:40;100178.63;;;10.10;100.00
54948;BME280;41113;41.882;12.530;2023-04-15T05:58:06;100159.53;;;10.13;100.00
54948;BME280;41113;41.882;12.530;2023-04-15T06:00:31;100165.63;;;9.95;100.00
54948;BME280;41113;41.882;12.530;2023-04-15T06:02:56;100181.59;;;9.97;100.00
54948;BME280;41113;41.882;12.530;2023-04-15T06:05:23;100187.25;;;9.94;100.00
54948;BME280;41113;41.882;12.530;2023-04-15T06:07:49;100181.03;;;9.93;100.00
54948;BME280;41113;41.882;12.530;2023-04-15T06:10:14;100183.34;;;9.79;100.00
54948;BME280;41113;41.882;12.530;2023-04-15T06:12:40;100181.34;;;9.71;100.00
54948;BME280;41113;41.882;12.530;2023-04-15T06:15:05;100172.47;;;9.71;100.00
54948;BME280;41113;41.882;12.530;2023-04-15T06:17:31;100175.59;;;9.56;100.00
54948;BME280;41113;41.882;12.530;2023-04-15T06:19:56;100181.81;;;9.47;100.00
54948;BME280;41113;41.882;12.530;2023-04-15T06:22:22;100170.09;;;9.48;100.00
54948;BME280;41113;41.882;12.530;2023-04-15T06:24:48;100182.94;;;9.54;100.00
54948;BME280;41113;41.882;12.530;2023-04-15T06:27:15;100185.59;;;9.54;100.00
54948;BME280;41113;41.882;12.530;2023-04-15T06:29:41;100190.41;;;9.51;100.00
54948;BME280;41113;41.882;12.530;2023-04-15T06:32:06;100176.00;;;9.61;100.00
54948;BME280;41113;41.882;12.530;2023-04-15T06:34:32;100171.75;;;9.68;100.00
54948;BME280;41113;41.882;12.530;2023-04-15T06:36:57;100163.59;;;9.60;100.00
54948;BME280;41113;41.882;12.530;2023-04-15T06:39:23;100154.00;;;9.39;100.00
54948;BME280;41113;41.882;12.530;2023-04-15T06:41:48;100165.28;;;9.32;100.00
54948;BME280;41113;41.882;12.530;2023-04-15T06:44:13;100161.91;;;9.40;100.00
54948;BME280;41113;41.882;12.530;2023-04-15T06:46:39;100161.91;;;9.50;100.00
54948;BME280;41113;41.882;12.530;2023-04-15T06:49:04;100152.03;;;9.50;100.00
54948;BME280;41113;41.882;12.530;2023-04-15T06:51:30;100153.03;;;9.49;100.00
54948;BME280;41113;41.882;12.530;2023-04-15T06:53:55;100163.31;;;9.34;100.00
54948;BME280;41113;41.882;12.530;2023-04-15T06:56:21;100165.44;;;9.31;100.00
54948;BME280;41113;41.882;12.530;2023-04-15T06:58:47;100179.41;;;9.25;100.00
54948;BME280;41113;41.882;12.530;2023-04-15T07:01:12;100177.44;;;9.27;100.00
54948;BME280;41113;41.882;12.530;2023-04-15T07:03:38;100171.91;;;9.09;100.00
54948;BME280;41113;41.882;12.530;2023-04-15T07:06:03;100166.97;;;9.04;100.00
54948;BME280;41113;41.882;12.530;2023-04-15T07:08:31;100170.66;;;9.23;100.00
54948;BME280;41113;41.882;12.530;2023-04-15T07:10:59;100179.41;;;9.44;100.00
54948;BME280;41113;41.882;12.530;2023-04-15T07:13:24;100174.31;;;9.60;100.00
54948;BME280;41113;41.882;12.530;2023-04-15T07:15:50;100186.28;;;9.66;100.00
54948;BME280;41113;41.882;12.530;2023-04-15T07:18:15;100201.53;;;9.65;100.00
54948;BME280;41113;41.882;12.530;2023-04-15T07:20:41;100175.47;;;9.48;100.00
54948;BME280;41113;41.882;12.530;2023-04-15T07:23:07;100189.16;;;9.45;100.00
54948;BME280;41113;41.882;12.530;2023-04-15T07:25:32;100190.38;;;9.41;100.00
54948;BME280;41113;41.882;12.530;2023-04-15T07:27:57;100202.25;;;9.29;100.00
54948;BME280;41113;41.882;12.530;2023-04-15T07:30:23;100202.25;;;9.29;100.00
54948;BME280;41113;41.882;12.530;2023-04-15T07:32:48;100198.28;;;9.33;100.00
54948;BME280;41113;41.882;12.530;2023-04-15T07:35:15;100205.63;;;9.31;100.00
54948;BME280;41113;41.882;12.530;2023-04-15T07:37:41;100207.31;;;9.22;100.00
54948;BME280;41113;41.882;12.530;2023-04-15T07:40:08;100230.44;;;9.14;100.00
54948;BME280;41113;41.882;12.530;2023-04-15T07:42:35;100227.75;;;9.14;100.00
54948;BME280;41113;41.882;12.530;2023-04-15T07:45:00;100233.81;;;9.16;100.00
54948;BME280;41113;41.882;12.530;2023-04-15T07:47:26;100232.13;;;9.15;100.00
54948;BME280;41113;41.882;12.530;2023-04-15T07:49:51;100232.22;;;9.03;100.00
54948;BME280;41113;41.882;12.530;2023-04-15T07:52:18;100238.28;;;8.96;100.00
54948;BME280;41113;41.882;12.530;2023-04-15T07:54:44;100232.50;;;9.00;100.00
54948;BME280;41113;41.882;12.530;2023-04-15T07:57:09;100223.09;;;9.16;100.00
54948;BME280;41113;41.882;12.530;2023-04-15T07:59:35;100232.66;;;9.09;100.00
54948;BME280;41113;41.882;12.530;2023-04-15T08:02:01;100236.66;;;9.14;100.00
54948;BME280;41113;41.882;12.530;2023-04-15T08:04:27;100232.66;;;9.09;100.00
54948;BME280;41113;41.882;12.530;2023-04-15T08:06:53;100229.28;;;9.07;100.00
54948;BME280;41113;41.882;12.530;2023-04-15T08:09:19;100232.66;;;9.09;100.00
54948;BME280;41113;41.882;12.530;2023-04-15T08:11:47;100241.31;;;9.22;100.00
54948;BME280;41113;41.882;12.530;2023-04-15T08:14:12;100245.53;;;9.34;100.00
54948;BME280;41113;41.882;12.530;2023-04-15T08:16:38;100251.19;;;9.41;100.00
54948;BME280;41113;41.882;12.530;2023-04-15T08:19:04;100247.97;;;9.47;100.00
54948;BME280;41113;41.882;12.530;2023-04-15T08:21:30;100251.34;;;9.49;100.00
54948;BME280;41113;41.882;12.530;2023-04-15T08:23:56;100249.91;;;9.35;100.00
54948;BME280;41113;41.882;12.530;2023-04-15T08:26:21;100245.69;;;9.42;100.00
54948;BME280;41113;41.882;12.530;2023-04-15T08:28:47;100241.75;;;9.46;100.00
54948;BME280;41113;41.882;12.530;2023-04-15T08:31:14;100256.16;;;9.45;100.00
54948;BME280;41113;41.882;12.530;2023-04-15T08:33:41;100247.13;;;9.46;100.00
54948;BME280;41113;41.882;12.530;2023-04-15T08:36:06;100249.50;;;9.40;100.00
54948;BME280;41113;41.882;12.530;2023-04-15T08:38:32;100251.47;;;9.38;100.00
54948;BME280;41113;41.882;12.530;2023-04-15T08:40:59;100254.44;;;9.34;100.00
54948;BME280;41113;41.882;12.530;2023-04-15T08:43:27;100252.88;;;9.32;100.00
54948;BME280;41113;41.882;12.530;2023-04-15T08:45:58;100258.97;;;9.44;100.00
54948;BME280;41113;41.882;12.530;2023-04-15T08:48:28;100247.41;;;9.43;100.00
54948;BME280;41113;41.882;12.530;2023-04-15T08:50:56;100246.28;;;9.55;100.00
54948;BME280;41113;41.882;12.530;2023-04-15T08:53:23;100249.78;;;9.65;100.00
54948;BME280;41113;41.882;12.530;2023-04-15T08:55:51;100253.88;;;9.70;100.00
54948;BME280;41113;41.882;12.530;2023-04-15T08:58:18;100249.09;;;9.73;100.00
54948;BME280;41113;41.882;12.530;2023-04-15T09:00:43;100255.75;;;9.79;100.00
54948;BME280;41113;41.882;12.530;2023-04-15T09:03:09;100245.56;;;9.73;100.00
54948;BME280;41113;41.882;12.530;2023-04-15T09:05:35;100248.25;;;9.73;100.00
54948;BME280;41113;41.882;12.530;2023-04-15T09:08:01;100238.94;;;9.77;100.00
54948;BME280;41113;41.882;12.530;2023-04-15T09:10:28;100247.56;;;9.80;100.00
54948;BME280;41113;41.882;12.530;2023-04-15T09:12:54;100244.28;;;9.96;100.00
54948;BME280;41113;41.882;12.530;2023-04-15T09:15:20;100242.41;;;10.06;100.00
54948;BME280;41113;41.882;12.530;2023-04-15T09:17:45;100233.22;;;10.18;100.00
54948;BME280;41113;41.882;12.530;2023-04-15T09:20:15;100230.38;;;10.39;100.00
54948;BME280;41113;41.882;12.530;2023-04-15T09:22:45;100231.16;;;10.59;100.00
54948;BME280;41113;41.882;12.530;2023-04-15T09:27:47;100227.25;;;10.81;100.00
54948;BME280;41113;41.882;12.530;2023-04-15T09:30:12;100224.31;;;10.74;100.00
54948;BME280;41113;41.882;12.530;2023-04-15T09:33:07;100215.53;;;10.72;100.00
54948;BME280;41113;41.882;12.530;2023-04-15T09:35:33;100233.56;;;10.89;100.00
54948;BME280;41113;41.882;12.530;2023-04-15T09:38:11;100201.56;;;10.96;100.00
54948;BME280;41113;41.882;12.530;2023-04-15T09:40:38;100212.81;;;11.09;100.00
54948;BME280;41113;41.882;12.530;2023-04-15T09:43:07;100192.69;;;11.13;100.00
54948;BME280;41113;41.882;12.530;2023-04-15T09:45:33;100187.25;;;11.23;100.00
54948;BME280;41113;41.882;12.530;2023-04-15T09:48:14;100182.88;;;11.40;100.00
54948;BME280;41113;41.882;12.530;2023-04-15T09:50:43;100174.09;;;11.56;100.00
54948;BME280;41113;41.882;12.530;2023-04-15T09:53:19;100169.72;;;11.72;100.00
54948;BME280;41113;41.882;12.530;2023-04-15T09:55:52;100164.00;;;11.93;100.00
54948;BME280;41113;41.882;12.530;2023-04-15T09:58:26;100156.41;;;12.14;100.00
54948;BME280;41113;41.882;12.530;2023-04-15T10:00:53;100158.13;;;12.24;100.00
54948;BME280;41113;41.882;12.530;2023-04-15T10:03:21;100165.38;;;12.23;100.00
54948;BME280;41113;41.882;12.530;2023-04-15T10:05:51;100159.47;;;12.20;100.00
54948;BME280;41113;41.882;12.530;2023-04-15T10:08:18;100168.34;;;12.12;100.00
54948;BME280;41113;41.882;12.530;2023-04-15T10:10:45;100165.81;;;12.10;100.00
54948;BME280;41113;41.882;12.530;2023-04-15T10:13:16;100156.94;;;12.18;100.00
54948;BME280;41113;41.882;12.530;2023-04-15T10:15:43;100165.25;;;12.33;100.00
54948;BME280;41113;41.882;12.530;2023-04-15T10:18:11;100155.22;;;12.43;100.00
54948;BME280;41113;41.882;12.530;2023-04-15T10:20:39;100149.63;;;12.36;100.00
54948;BME280;41113;41.882;12.530;2023-04-15T10:23:05;100155.22;;;12.43;100.00
54948;BME280;41113;41.882;12.530;2023-04-15T10:25:32;100143.22;;;12.71;100.00
54948;BME280;41113;41.882;12.530;2023-04-15T10:27:58;100150.06;;;13.08;100.00
54948;BME280;41113;41.882;12.530;2023-04-15T10:30:24;100170.78;;;13.07;100.00
54948;BME280;41113;41.882;12.530;2023-04-15T10:32:50;100160.75;;;12.75;100.00
54948;BME280;41113;41.882;12.530;2023-04-15T10:35:16;100153.53;;;12.42;100.00
54948;BME280;41113;41.882;12.530;2023-04-15T10:37:42;100163.41;;;12.33;100.00
54948;BME280;41113;41.882;12.530;2023-04-15T10:40:28;100159.63;;;12.18;100.00
54948;BME280;41113;41.882;12.530;2023-04-15T10:42:58;100165.13;;;12.08;100.00
54948;BME280;41113;41.882;12.530;2023-04-15T10:45:35;100161.28;;;12.11;100.00
54948;BME280;41113;41.882;12.530;2023-04-15T10:48:02;100150.81;;;12.08;100.00
54948;BME280;41113;41.882;12.530;2023-04-15T10:50:32;100160.06;;;12.05;100.00
54948;BME280;41113;41.882;12.530;2023-04-15T10:53:02;100145.16;;;11.93;100.00
54948;BME280;41113;41.882;12.530;2023-04-15T10:55:31;100136.44;;;11.99;100.00
54948;BME280;41113;41.882;12.530;2023-04-15T10:57:57;100131.13;;;12.07;100.00
54948;BME280;41113;41.882;12.530;2023-04-15T11:00:24;100130.19;;;12.17;100.00
54948;BME280;41113;41.882;12.530;2023-04-15T11:02:51;100126.84;;;12.23;100.00
54948;BME280;41113;41.882;12.530;2023-04-15T11:05:18;100135.63;;;12.33;100.00
54948;BME280;41113;41.882;12.530;2023-04-15T11:12:39;100130.22;;;11.99;100.00
54948;BME280;41113;41.882;12.530;2023-04-15T11:18:08;100128.84;;;11.95;100.00
54948;BME280;41113;41.882;12.530;2023-04-15T11:20:34;100133.72;;;11.91;100.00
54948;BME280;41113;41.882;12.530;2023-04-15T11:23:00;100132.38;;;11.95;100.00
54948;BME280;41113;41.882;12.530;2023-04-15T11:25:27;100124.84;;;11.99;100.00
54948;BME280;41113;41.882;12.530;2023-04-15T11:27:54;100137.47;;;11.98;100.00
54948;BME280;41113;41.882;12.530;2023-04-15T11:30:22;100147.00;;;11.93;100.00
54948;BME280;41113;41.882;12.530;2023-04-15T11:32:49;100137.88;;;11.68;100.00
54948;BME280;41113;41.882;12.530;2023-04-15T11:35:17;100144.53;;;11.56;100.00
54948;BME280;41113;41.882;12.530;2023-04-15T11:37:48;100136.09;;;11.50;100.00
54948;BME280;41113;41.882;12.530;2023-04-15T11:40:14;100133.34;;;11.42;100.00
54948;BME280;41113;41.882;12.530;2023-04-15T11:42:42;100136.63;;;11.36;100.00
54948;BME280;41113;41.882;12.530;2023-04-15T11:45:08;100133.63;;;11.21;100.00
54948;BME280;41113;41.882;12.530;2023-04-15T11:47:38;100136.47;;;11.20;100.00
54948;BME280;41113;41.882;12.530;2023-04-15T11:50:16;100132.00;;;10.93;100.00
54948;BME280;41113;41.882;12.530;2023-04-15T11:53:03;100138.75;;;10.79;100.00
54948;BME280;41113;41.882;12.530;2023-04-15T11:55:30;100130.78;;;10.87;100.00
54948;BME280;41113;41.882;12.530;2023-04-15T11:58:11;100128.50;;;11.10;100.00
54948;BME280;41113;41.882;12.530;2023-04-15T12:00:39;100127.88;;;11.16;100.00
54948;BME280;41113;41.882;12.530;2023-04-15T12:03:16;100117.13;;;11.16;100.00
54948;BME280;41113;41.882;12.530;2023-04-15T12:16:42;100130.19;;;11.29;100.00
54948;BME280;41113;41.882;12.530;2023-04-15T12:19:10;100131.72;;;11.32;100.00
54948;BME280;41113;41.882;12.530;2023-04-15T12:21:38;100123.78;;;11.30;100.00
54948;BME280;41113;41.882;12.530;2023-04-15T12:24:06;100137.88;;;11.24;100.00
54948;BME280;41113;41.882;12.530;2023-04-15T12:26:52;100127.88;;;11.16;100.00
54948;BME280;41113;41.882;12.530;2023-04-15T12:29:20;100129.50;;;11.09;100.00
54948;BME280;41113;41.882;12.530;2023-04-15T12:31:56;100112.91;;;11.14;100.00
54948;BME280;41113;41.882;12.530;2023-04-15T12:34:36;100112.50;;;11.27;100.00
54948;BME280;41113;41.882;12.530;2023-04-15T12:37:03;100101.66;;;11.36;100.00
54948;BME280;41113;41.882;12.530;2023-04-15T12:39:31;100096.53;;;11.25;100.00
54948;BME280;41113;41.882;12.530;2023-04-15T12:41:59;100095.38;;;11.28;100.00
54948;BME280;41113;41.882;12.530;2023-04-15T12:44:24;100098.13;;;11.36;100.00
54948;BME280;41113;41.882;12.530;2023-04-15T12:46:51;100087.22;;;11.37;100.00
54948;BME280;41113;41.882;12.530;2023-04-15T12:49:21;100083.66;;;11.54;100.00
54948;BME280;41113;41.882;12.530;2023-04-15T12:51:48;100076.41;;;11.73;100.00
54948;BME280;41113;41.882;12.530;2023-04-15T12:54:15;100079.22;;;11.89;100.00
54948;BME280;41113;41.882;12.530;2023-04-15T12:56:42;100080.00;;;12.07;100.00